CheckWX is a tool to help pilots better visualize weather data.  It is not intended as a substitute for an official pre-flight weather briefing.

16:20:21 UTC

LFPN METAR
Toussus-le-Noble Airport
Toussus-le-Noble, France
Current

20 mins ago

LFPN 211600Z AUTO 24012KT 9999 FEW034 BKN210 09/02 Q1029 NOSIG
Observed
Feb-21 @ 16:00 UTC
Wind
  • 240° at 12 KTS
Visibility
10,000+ meters
Flight Rules
VFR
Cloud Levels
  • Few at 3,400' AGL
  • Broken at 21,000' AGL
Temperature
C / 48°F
Dewpoint
C / 36°F
Humidity
62%
Altimeter
30.38" Hg
Pressure
1028.92 hPa
Previous

50 mins ago

LFPN 211530Z AUTO 24013KT 9999 FEW036 09/02 Q1029 NOSIG
Observed
Feb-21 @ 15:30 UTC
Wind
  • 240° at 13 KTS
Visibility
10,000+ meters
Flight Rules
VFR
Cloud Levels
  • Few at 3,600' AGL
Temperature
C / 48°F
Dewpoint
C / 36°F
Humidity
62%
Altimeter
30.38" Hg
Pressure
1028.92 hPa
Previous

1 hour ago

LFPN 211500Z AUTO 23013KT 9999 FEW037 09/02 Q1029 NOSIG
Observed
Feb-21 @ 15:00 UTC
Wind
  • 230° at 13 KTS
Visibility
10,000+ meters
Flight Rules
VFR
Cloud Levels
  • Few at 3,700' AGL
Temperature
C / 48°F
Dewpoint
C / 36°F
Humidity
62%
Altimeter
30.38" Hg
Pressure
1028.92 hPa